SHWT weather

World Trade Center Heliport
Santiago, Santiago Metropolitan Region, Chile

Public forecast

Using degrees Celsius for public forecast. Weather courtesy of forecast.io.

METAR (pilot weather report)

Closest report is Eulogio Sánchez Airport, 4.2 nm (7.9 km) SE. Retrieved 2019/07/22 20:00 UTC (41 minutes ago):

SCTB 222000Z VRB03KT 7000 BKN040 10/00 Q1019

TAF (pilot weather forecast)

Closest forecast is Comodoro Arturo Merino Benítez International Airport, 9.2 nm (17.0 km) W. Retrieved 2019/07/22 18:00 UTC (3 hours ago):

TAF SCEL 221615Z 2218/2318 18004KT 8000 NSC TX10/2219Z TN00/2311Z BECMG 2301/2303 15004KT BECMG 2306/2308 5000 HZ NSC TEMPO 2310/2313 VRB02KT 0800 BCFG SCT002 BECMG 2316/2318 7000 NSW NSC